Oxford, Arkansas
Current Conditions -  °F | °C
As of 10:53 PM on Friday 21 Nov 2014 (Local Time) from KBPK Reporting Station
Haze Haze  
Wind Chill: 42°   Ceiling: 300
Heat Index: 42°   Visibility: 4mi
Dew Point: 41°   Wind: 3mph
Humidity: 96%   Direction: 110°ESE
Pressure: 30.23"   Gusts: NA
Location:  36.22°N, 91.93°W
Report Text: KBPK 220453Z AUTO 11003KT 4SM BR OVC003 06/05 A3023 RMK AO2 SLP240 T00560050
Loading
Personal Weather Stations






























Interactive Weather Map New forecast layout! Learn more

10-Day Weather Forecast

Advertisements
Track Severe Weather on mobile